• Join FlightAware (Why Join?)
  • Login
  • US Flag 
03:54PM EDT


 

Airport Tracker/Info


-or-


 

Live Flight TrackerFlight Track Log ✈ N64287 ✈ 10-May-2013 ✈ KFAR - KLUM

Flight Track Log - Related Links

Times and Time Zones

All times are in EDT time to prevent confusion due to time zone crossing. See the N64287 flight status page for this flight to view local times or setup timezone preferences in your user account.

Time Position Orientation Groundspeed Altitude Reporting Facility
EDT Latitude Longitude Course Direction KTS MPH feet Rate Location/Type
03:01PM 46.8925 -96.8083 116° Southeast 56 64 2,900  Level Minneapolis Center
03:02PM 46.8856 -96.7758 107° East 77 89 3,600 540 Climbing Minneapolis Center
03:03PM 46.8786 -96.7461 109° East 75 86 4,100 600 Climbing Minneapolis Center
03:04PM 46.8731 -96.7092 102° East 87 100 4,900 600 Climbing Minneapolis Center
03:05PM 46.8201 -96.5484 123° Southeast  Level Estimated
03:05PM 46.8633 -96.6758 113° Southeast 87 100 5,400  Level Minneapolis Center
03:06PM 46.8033 -96.5040 116° Southeast  Level Estimated
03:06PM 46.8525 -96.6389 113° Southeast 92 106 6,000  Level Minneapolis Center
03:07PM 46.8378 -96.6011 120° Southeast 102 117 6,600 480 Climbing Minneapolis Center
03:08PM 46.8236 -96.5681 122° Southeast 102 117 7,100 480 Climbing Minneapolis Center
03:09PM 46.8108 -96.5267 114° Southeast 106 122 7,600 480 Climbing Minneapolis Center
03:10PM 46.7956 -96.4842 118° Southeast 111 128 8,100 480 Climbing Minneapolis Center
03:11PM 46.7803 -96.4431 118° Southeast 112 129 8,600 360 Climbing Minneapolis Center
03:12PM 46.7592 -96.4072 131° Southeast 111 128 8,900 180 Climbing Minneapolis Center
03:13PM 46.7386 -96.3558 120° Southeast 138 159 9,000  Climbing Minneapolis Center
03:14PM 46.7242 -96.3069 113° Southeast 137 158 9,000  Level Minneapolis Center
03:15PM 46.7075 -96.2539 115° Southeast 138 159 9,000  Level Minneapolis Center
03:16PM 46.6881 -96.2019 119° Southeast 140 161 9,000  Level Minneapolis Center
03:17PM 46.6681 -96.1519 120° Southeast 137 158 9,000  Level Minneapolis Center
03:18PM 46.6467 -96.1019 122° Southeast 139 160 9,000 -60 Level Minneapolis Center
03:19PM 46.6272 -96.0497 118° Southeast 140 161 8,900 -60 Descending Minneapolis Center
03:20PM 46.6083 -95.9978 118° Southeast 140 161 8,900  Level Minneapolis Center
03:21PM 46.5911 -95.9514 118° Southeast 135 155 8,900  Level Minneapolis Center
03:22PM 46.5697 -95.9008 122° Southeast 139 160 8,900  Level Minneapolis Center
03:23PM 46.5483 -95.8581 126° Southeast 137 158 8,900  Level Minneapolis Center
03:24PM 46.5292 -95.8031 117° Southeast 135 155 8,900  Level Minneapolis Center
03:25PM 46.5106 -95.7503 117° Southeast 138 159 8,900  Level Minneapolis Center
03:26PM 46.4931 -95.7036 119° Southeast 137 158 8,900  Level Minneapolis Center
03:27PM 46.4750 -95.6528 117° Southeast 135 155 8,900  Level Minneapolis Center
03:28PM 46.4586 -95.6081 118° Southeast 139 160 8,900  Level Minneapolis Center
03:30PM 46.4414 -95.5633 119° Southeast  Level FlightAware Approximate
03:34PM 46.3428 -95.3244 119° Southeast 208 239 8,900  Level Minneapolis Center
03:35PM 46.3278 -95.2797 116° Southeast 139 160 9,000  Climbing Minneapolis Center
03:36PM 46.3108 -95.2342 118° Southeast 135 155 9,000  Level Minneapolis Center
03:37PM 46.3223 -95.2557 119° Southeast  Level FlightAware Approximate
03:37PM 46.2911 -95.1867 121° Southeast 135 155 9,000  Level Minneapolis Center
03:38PM 46.3052 -95.2118 119° Southeast  Level FlightAware Approximate
03:38PM 46.2722 -95.1400 120° Southeast 135 155 9,000  Level Minneapolis Center
03:39PM 46.2881 -95.1680 119° Southeast  Level FlightAware Approximate
03:39PM 46.2533 -95.0931 120° Southeast 135 155 9,000  Level Minneapolis Center
03:40PM 46.2710 -95.1242 119° Southeast  Level FlightAware Approximate
03:40PM 46.2300 -95.0344 120° Southeast 137 158 9,000  Level Minneapolis Center
03:41PM 46.2117 -94.9883 120° Southeast 137 158 8,900 -60 Descending Minneapolis Center
03:43PM 46.1914 -94.9417 122° Southeast 136 157 8,900  Level Minneapolis Center
03:44PM 46.1761 -94.8994 118° Southeast 132 152 8,900  Level Minneapolis Center
03:45PM 46.1542 -94.8439 120° Southeast 133 153 9,000  Climbing Minneapolis Center
03:46PM 46.1350 -94.7983 121° Southeast 133 153 9,000  Level Minneapolis Center
03:47PM 46.1164 -94.7539 121° Southeast 131 151 9,000  Level Minneapolis Center
03:48PM 46.0989 -94.7078 119° Southeast 132 152 9,000  Level Minneapolis Center
03:49PM 46.0817 -94.6617 118° Southeast 132 152 9,000  Level Minneapolis Center
03:50PM 46.0636 -94.6167 120° Southeast 131 151 9,000  Level Minneapolis Center
03:51PM 46.0389 -94.5647 124° Southeast 131 151 9,000  Level Minneapolis Center
03:52PM 46.0211 -94.5203 120° Southeast 129 148 9,000  Level Minneapolis Center
03:53PM 46.0056 -94.4736 116° Southeast 130 150 9,000  Level Minneapolis Center
03:54PM 45.9897 -94.4283 117° Southeast 128 147 9,100  Climbing Minneapolis Center
03:55PM 45.9725 -94.3850 120° Southeast 127 146 9,000 -60 Descending Minneapolis Center
03:56PM 45.9542 -94.3397 120° Southeast 129 148 9,000 -60 Level Minneapolis Center
03:57PM 45.9297 -94.2889 125° Southeast 130 150 8,900  Descending Minneapolis Center
03:58PM 45.9114 -94.2458 121° Southeast 129 148 9,000  Climbing Minneapolis Center
03:59PM 45.8922 -94.2056 124° Southeast 125 144 9,000  Level Minneapolis Center
04:00PM 45.8744 -94.1575 118° Southeast 126 145 9,000  Level Minneapolis Center
04:01PM 45.8569 -94.1150 121° Southeast 128 147 9,000  Level Minneapolis Center
04:02PM 45.8389 -94.0733 122° Southeast 128 147 9,000  Level Minneapolis Center
04:03PM 45.8228 -94.0253 116° Southeast 125 144 9,000  Level Minneapolis Center
04:04PM 45.8028 -93.9747 120° Southeast 127 146 9,000 -60 Level Minneapolis Center
04:05PM 45.7833 -93.9336 124° Southeast 126 145 8,900 -60 Descending Minneapolis Center
04:06PM 45.7644 -93.8906 122° Southeast 128 147 8,900  Level Minneapolis Center
04:07PM 45.7456 -93.8458 121° Southeast 130 150 8,900  Level Minneapolis Center
04:08PM 45.7275 -93.8036 121° Southeast 128 147 9,000  Climbing Minneapolis Center
04:09PM 45.7078 -93.7514 118° Southeast 124 143 8,900 -60 Descending Minneapolis Center
04:10PM 45.6908 -93.7089 120° Southeast 124 143 8,900  Level Minneapolis Center
04:11PM 45.6692 -93.6667 126° Southeast 130 150 8,900  Level Minneapolis Center
04:12PM 45.6531 -93.6233 118° Southeast 125 144 8,900  Level Minneapolis Center
04:14PM 45.6378 -93.5800 117° Southeast 125 144 9,000 60 Climbing Minneapolis Center
04:15PM 45.6203 -93.5367 120° Southeast 127 146 9,100  Climbing Minneapolis Center
04:16PM 45.5989 -93.4844 120° Southeast 129 148 9,100  Level Minneapolis Center
04:17PM 45.5806 -93.4417 121° Southeast 129 148 9,100  Level Minneapolis Center
04:18PM 45.5578 -93.3919 123° Southeast 127 146 9,100  Level Minneapolis Center
04:19PM 45.5383 -93.3486 123° Southeast 129 148 9,100  Level Minneapolis Center
04:20PM 45.5189 -93.3067 123° Southeast 128 147 9,100 -60 Level Minneapolis Center
04:21PM 45.4978 -93.2536 120° Southeast 129 148 9,000  Descending Minneapolis Center
04:22PM 45.4792 -93.2100 121° Southeast 129 148 9,100  Climbing Minneapolis Center
04:23PM 45.4589 -93.1583 119° Southeast 126 145 9,100  Level Minneapolis Center
04:24PM 45.4394 -93.1181 125° Southeast 125 144 9,100 -180 Level Minneapolis Center
04:25PM 45.4189 -93.0747 124° Southeast 131 151 8,800 -420 Descending Minneapolis Center
04:26PM 45.3944 -93.0319 129° Southeast 138 159 8,300 -540 Descending Minneapolis Center
04:27PM 45.3708 -92.9756 121° Southeast 139 160 7,800 -540 Descending Minneapolis Center
04:28PM 45.3536 -92.9269 117° Southeast 138 159 7,200 -420 Descending Minneapolis Center
04:29PM 45.3367 -92.8789 117° Southeast 137 158 7,000 -120 Descending Minneapolis Center
04:30PM 45.3200 -92.8392 121° Southeast 121 139 7,000  Level Minneapolis Center
04:32PM 45.3042 -92.8008 120° Southeast 115 132 7,100  Climbing Minneapolis Center
04:33PM 45.2833 -92.7542 122° Southeast 117 135 7,100  Level Minneapolis Center
04:34PM 45.2678 -92.7122 118° Southeast 119 137 7,100  Level Minneapolis Center
04:35PM 45.2500 -92.6719 122° Southeast 120 138 7,100 -60 Level Minneapolis Center
04:36PM 45.2325 -92.6319 122° Southeast 121 139 7,000 -120 Descending Minneapolis Center
04:37PM 45.2136 -92.5922 124° Southeast 122 140 6,900 -60 Descending Minneapolis Center
04:38PM 45.1947 -92.5533 125° Southeast 121 139 6,900  Level Minneapolis Center
04:39PM 45.1750 -92.5053 120° Southeast 118 136 6,900  Level Minneapolis Center
04:40PM 45.1583 -92.4681 122° Southeast 113 130 7,000 60 Climbing Minneapolis Center
04:41PM 45.1411 -92.4308 123° Southeast 113 130 7,100 -120 Climbing Minneapolis Center
04:42PM 45.1233 -92.3892 121° Southeast 122 140 6,800 -420 Descending Minneapolis Center
04:43PM 45.0997 -92.3383 123° Southeast 128 147 6,200 -480 Descending Minneapolis Center
04:44PM 45.0806 -92.2942 122° Southeast 131 151 5,900 -420 Descending Minneapolis Center
04:45PM 45.0592 -92.2439 121° Southeast 125 144 5,400 -420 Descending Minneapolis Center
04:46PM 45.0406 -92.2028 123° Southeast 124 143 5,000 -420 Descending Minneapolis Center
04:47PM 45.0219 -92.1578 120° Southeast 114 131 4,500 -480 Descending Minneapolis Center
04:48PM 45.0069 -92.1214 120° Southeast 109 125 4,100 -300 Descending Minneapolis Center
04:50PM 44.9892 -92.0864 126° Southeast 109 125 3,900 -180 Descending Minneapolis Center
04:51PM 44.9672 -92.0453 127° Southeast 110 127 3,800 -300 Descending Minneapolis Center
04:52PM 44.9519 -92.0078 120° Southeast 110 127 3,300 -360 Descending Minneapolis Center
04:53PM 44.9378 -91.9717 119° Southeast 109 125 3,100 -240 Descending Minneapolis Center